sensor_id;sensor_type;location;lat;lon;timestamp;temperature;humidity
12470;DHT22;36499;46.484;13.832;2022-10-16T00:01:34;7.30;99.90
12470;DHT22;36499;46.484;13.832;2022-10-16T00:04:02;7.20;99.90
12470;DHT22;36499;46.484;13.832;2022-10-16T00:06:29;7.20;99.90
12470;DHT22;36499;46.484;13.832;2022-10-16T00:08:58;7.20;99.90
12470;DHT22;36499;46.484;13.832;2022-10-16T00:11:27;7.20;99.90
12470;DHT22;36499;46.484;13.832;2022-10-16T00:14:00;7.10;99.90
12470;DHT22;36499;46.484;13.832;2022-10-16T00:16:28;7.20;99.90
12470;DHT22;36499;46.484;13.832;2022-10-16T00:18:57;7.20;99.90
12470;DHT22;36499;46.484;13.832;2022-10-16T00:21:26;7.20;99.90
12470;DHT22;36499;46.484;13.832;2022-10-16T00:23:57;7.20;99.90
12470;DHT22;36499;46.484;13.832;2022-10-16T00:26:28;7.30;99.90
12470;DHT22;36499;46.484;13.832;2022-10-16T00:28:59;7.40;99.90
12470;DHT22;36499;46.484;13.832;2022-10-16T00:31:27;7.40;99.90
12470;DHT22;36499;46.484;13.832;2022-10-16T00:33:56;7.40;99.90
12470;DHT22;36499;46.484;13.832;2022-10-16T00:36:25;7.40;99.90
12470;DHT22;36499;46.484;13.832;2022-10-16T00:38:54;7.30;99.90
12470;DHT22;36499;46.484;13.832;2022-10-16T00:41:25;7.30;99.90
12470;DHT22;36499;46.484;13.832;2022-10-16T00:43:55;7.30;99.90
12470;DHT22;36499;46.484;13.832;2022-10-16T00:46:25;7.30;99.90
12470;DHT22;36499;46.484;13.832;2022-10-16T00:48:57;7.30;99.90
12470;DHT22;36499;46.484;13.832;2022-10-16T00:51:36;7.30;99.90
12470;DHT22;36499;46.484;13.832;2022-10-16T00:54:10;7.20;99.90
12470;DHT22;36499;46.484;13.832;2022-10-16T00:56:42;7.20;99.90
12470;DHT22;36499;46.484;13.832;2022-10-16T00:59:15;7.20;99.90
12470;DHT22;36499;46.484;13.832;2022-10-16T01:01:45;7.20;99.90
12470;DHT22;36499;46.484;13.832;2022-10-16T01:04:17;7.20;99.90
12470;DHT22;36499;46.484;13.832;2022-10-16T01:06:52;7.20;99.90
12470;DHT22;36499;46.484;13.832;2022-10-16T01:09:36;7.30;99.90
12470;DHT22;36499;46.484;13.832;2022-10-16T01:12:16;7.20;99.90
12470;DHT22;36499;46.484;13.832;2022-10-16T01:14:54;7.20;99.90
12470;DHT22;36499;46.484;13.832;2022-10-16T01:17:30;7.20;99.90
12470;DHT22;36499;46.484;13.832;2022-10-16T01:20:10;7.30;99.90
12470;DHT22;36499;46.484;13.832;2022-10-16T01:23:05;7.30;99.90
12470;DHT22;36499;46.484;13.832;2022-10-16T01:25:55;7.30;99.90
12470;DHT22;36499;46.484;13.832;2022-10-16T01:29:05;7.20;99.90
12470;DHT22;36499;46.484;13.832;2022-10-16T01:31:37;7.30;99.90
12470;DHT22;36499;46.484;13.832;2022-10-16T01:34:12;7.30;99.90
12470;DHT22;36499;46.484;13.832;2022-10-16T01:36:51;7.30;99.90
12470;DHT22;36499;46.484;13.832;2022-10-16T01:39:24;7.30;99.90
12470;DHT22;36499;46.484;13.832;2022-10-16T01:42:00;7.30;99.90
12470;DHT22;36499;46.484;13.832;2022-10-16T01:44:33;7.30;99.90
12470;DHT22;36499;46.484;13.832;2022-10-16T01:47:05;7.20;99.90
12470;DHT22;36499;46.484;13.832;2022-10-16T01:49:37;7.20;99.90
12470;DHT22;36499;46.484;13.832;2022-10-16T01:52:10;7.20;99.90
12470;DHT22;36499;46.484;13.832;2022-10-16T01:54:49;7.20;99.90
12470;DHT22;36499;46.484;13.832;2022-10-16T01:57:20;7.20;99.90
12470;DHT22;36499;46.484;13.832;2022-10-16T02:00:04;7.20;99.90
12470;DHT22;36499;46.484;13.832;2022-10-16T02:02:36;7.20;99.90
12470;DHT22;36499;46.484;13.832;2022-10-16T02:05:12;7.20;99.90
12470;DHT22;36499;46.484;13.832;2022-10-16T02:07:43;7.10;99.90
12470;DHT22;36499;46.484;13.832;2022-10-16T02:10:16;7.20;99.90
12470;DHT22;36499;46.484;13.832;2022-10-16T02:12:47;7.20;99.90
12470;DHT22;36499;46.484;13.832;2022-10-16T02:15:21;7.20;99.90
12470;DHT22;36499;46.484;13.832;2022-10-16T02:17:53;7.20;99.90
12470;DHT22;36499;46.484;13.832;2022-10-16T02:20:28;7.20;99.90
12470;DHT22;36499;46.484;13.832;2022-10-16T02:23:00;7.20;99.90
12470;DHT22;36499;46.484;13.832;2022-10-16T02:25:31;7.20;99.90
12470;DHT22;36499;46.484;13.832;2022-10-16T02:28:03;7.20;99.90
12470;DHT22;36499;46.484;13.832;2022-10-16T02:30:41;7.30;99.90
12470;DHT22;36499;46.484;13.832;2022-10-16T02:33:13;7.30;99.90
12470;DHT22;36499;46.484;13.832;2022-10-16T02:35:44;7.30;99.90
12470;DHT22;36499;46.484;13.832;2022-10-16T02:38:15;7.30;99.90
12470;DHT22;36499;46.484;13.832;2022-10-16T02:40:45;7.30;99.90
12470;DHT22;36499;46.484;13.832;2022-10-16T02:43:13;7.30;99.90
12470;DHT22;36499;46.484;13.832;2022-10-16T02:45:42;7.20;99.90
12470;DHT22;36499;46.484;13.832;2022-10-16T02:48:09;7.20;99.90
12470;DHT22;36499;46.484;13.832;2022-10-16T02:50:36;7.30;99.90
12470;DHT22;36499;46.484;13.832;2022-10-16T02:53:04;7.30;99.90
12470;DHT22;36499;46.484;13.832;2022-10-16T02:55:33;7.30;99.90
12470;DHT22;36499;46.484;13.832;2022-10-16T02:58:03;7.30;99.90
12470;DHT22;36499;46.484;13.832;2022-10-16T03:00:30;7.40;99.90
12470;DHT22;36499;46.484;13.832;2022-10-16T03:02:58;7.30;99.90
12470;DHT22;36499;46.484;13.832;2022-10-16T03:05:26;7.30;99.90
12470;DHT22;36499;46.484;13.832;2022-10-16T03:07:53;7.40;99.90
12470;DHT22;36499;46.484;13.832;2022-10-16T03:10:21;7.50;99.90
12470;DHT22;36499;46.484;13.832;2022-10-16T03:12:48;7.50;99.90
12470;DHT22;36499;46.484;13.832;2022-10-16T03:15:16;7.50;99.90
12470;DHT22;36499;46.484;13.832;2022-10-16T03:17:43;7.50;99.90
12470;DHT22;36499;46.484;13.832;2022-10-16T03:20:12;7.50;99.90
12470;DHT22;36499;46.484;13.832;2022-10-16T03:22:40;7.50;99.90
12470;DHT22;36499;46.484;13.832;2022-10-16T03:25:08;7.50;99.90
12470;DHT22;36499;46.484;13.832;2022-10-16T03:27:36;7.60;99.90
12470;DHT22;36499;46.484;13.832;2022-10-16T03:30:05;7.60;99.90
12470;DHT22;36499;46.484;13.832;2022-10-16T03:32:33;7.60;99.90
12470;DHT22;36499;46.484;13.832;2022-10-16T03:35:00;7.50;99.90
12470;DHT22;36499;46.484;13.832;2022-10-16T03:37:29;7.50;99.90
12470;DHT22;36499;46.484;13.832;2022-10-16T03:39:56;7.40;99.90
12470;DHT22;36499;46.484;13.832;2022-10-16T03:42:23;7.30;99.90
12470;DHT22;36499;46.484;13.832;2022-10-16T03:44:51;7.30;99.90
12470;DHT22;36499;46.484;13.832;2022-10-16T03:47:18;7.20;99.90
12470;DHT22;36499;46.484;13.832;2022-10-16T03:49:47;7.20;99.90
12470;DHT22;36499;46.484;13.832;2022-10-16T03:52:14;7.20;99.90
12470;DHT22;36499;46.484;13.832;2022-10-16T03:54:43;7.10;99.90
12470;DHT22;36499;46.484;13.832;2022-10-16T03:57:10;7.20;99.90
12470;DHT22;36499;46.484;13.832;2022-10-16T03:59:38;7.10;99.90
12470;DHT22;36499;46.484;13.832;2022-10-16T04:02:05;7.10;99.90
12470;DHT22;36499;46.484;13.832;2022-10-16T04:04:32;7.10;99.90
12470;DHT22;36499;46.484;13.832;2022-10-16T04:06:59;7.10;99.90
12470;DHT22;36499;46.484;13.832;2022-10-16T04:09:27;7.10;99.90
12470;DHT22;36499;46.484;13.832;2022-10-16T04:11:55;7.10;99.90
12470;DHT22;36499;46.484;13.832;2022-10-16T04:14:25;7.10;99.90
12470;DHT22;36499;46.484;13.832;2022-10-16T04:16:52;7.10;99.90
12470;DHT22;36499;46.484;13.832;2022-10-16T04:19:20;7.10;99.90
12470;DHT22;36499;46.484;13.832;2022-10-16T04:21:47;7.20;99.90
12470;DHT22;36499;46.484;13.832;2022-10-16T04:24:14;7.20;99.90
12470;DHT22;36499;46.484;13.832;2022-10-16T04:26:41;7.20;99.90
12470;DHT22;36499;46.484;13.832;2022-10-16T04:29:10;7.30;99.90
12470;DHT22;36499;46.484;13.832;2022-10-16T04:31:37;7.30;99.90
12470;DHT22;36499;46.484;13.832;2022-10-16T04:34:05;7.40;99.90
12470;DHT22;36499;46.484;13.832;2022-10-16T04:36:32;7.40;99.90
12470;DHT22;36499;46.484;13.832;2022-10-16T04:38:59;7.40;99.90
12470;DHT22;36499;46.484;13.832;2022-10-16T04:41:26;7.40;99.90
12470;DHT22;36499;46.484;13.832;2022-10-16T04:43:54;7.50;99.90
12470;DHT22;36499;46.484;13.832;2022-10-16T04:46:22;7.50;99.90
12470;DHT22;36499;46.484;13.832;2022-10-16T04:48:50;7.50;99.90
12470;DHT22;36499;46.484;13.832;2022-10-16T04:51:17;7.50;99.90
12470;DHT22;36499;46.484;13.832;2022-10-16T04:53:44;7.50;99.90
12470;DHT22;36499;46.484;13.832;2022-10-16T04:56:11;7.50;99.90
12470;DHT22;36499;46.484;13.832;2022-10-16T04:58:39;7.50;99.90
12470;DHT22;36499;46.484;13.832;2022-10-16T05:01:06;7.50;99.90
12470;DHT22;36499;46.484;13.832;2022-10-16T05:03:35;7.50;99.90
12470;DHT22;36499;46.484;13.832;2022-10-16T05:06:02;7.50;99.90
12470;DHT22;36499;46.484;13.832;2022-10-16T05:08:32;7.60;99.90
12470;DHT22;36499;46.484;13.832;2022-10-16T05:10:59;7.60;99.90
12470;DHT22;36499;46.484;13.832;2022-10-16T05:13:27;7.50;99.90
12470;DHT22;36499;46.484;13.832;2022-10-16T05:15:54;7.50;99.90
12470;DHT22;36499;46.484;13.832;2022-10-16T05:18:23;7.50;99.90
12470;DHT22;36499;46.484;13.832;2022-10-16T05:20:51;7.40;99.90
12470;DHT22;36499;46.484;13.832;2022-10-16T05:23:19;7.50;99.90
12470;DHT22;36499;46.484;13.832;2022-10-16T05:25:52;7.60;99.90
12470;DHT22;36499;46.484;13.832;2022-10-16T05:28:21;7.50;99.90
12470;DHT22;36499;46.484;13.832;2022-10-16T05:30:48;7.60;99.90
12470;DHT22;36499;46.484;13.832;2022-10-16T05:33:15;7.50;99.90
12470;DHT22;36499;46.484;13.832;2022-10-16T05:35:43;7.40;99.90
12470;DHT22;36499;46.484;13.832;2022-10-16T05:38:12;7.40;99.90
12470;DHT22;36499;46.484;13.832;2022-10-16T05:40:39;7.50;99.90
12470;DHT22;36499;46.484;13.832;2022-10-16T05:43:07;7.50;99.90
12470;DHT22;36499;46.484;13.832;2022-10-16T05:45:34;7.60;99.90
12470;DHT22;36499;46.484;13.832;2022-10-16T05:48:02;7.60;99.90
12470;DHT22;36499;46.484;13.832;2022-10-16T05:50:32;7.60;99.90
12470;DHT22;36499;46.484;13.832;2022-10-16T05:52:59;7.60;99.90
12470;DHT22;36499;46.484;13.832;2022-10-16T05:55:27;7.70;99.90
12470;DHT22;36499;46.484;13.832;2022-10-16T05:57:55;7.70;99.90
12470;DHT22;36499;46.484;13.832;2022-10-16T06:00:22;7.80;99.90
12470;DHT22;36499;46.484;13.832;2022-10-16T06:02:49;7.80;99.90
12470;DHT22;36499;46.484;13.832;2022-10-16T06:05:16;8.00;99.90
12470;DHT22;36499;46.484;13.832;2022-10-16T06:07:43;7.90;99.90
12470;DHT22;36499;46.484;13.832;2022-10-16T06:10:10;8.10;99.90
12470;DHT22;36499;46.484;13.832;2022-10-16T06:12:38;8.10;99.90
12470;DHT22;36499;46.484;13.832;2022-10-16T06:15:06;8.20;99.90
12470;DHT22;36499;46.484;13.832;2022-10-16T06:17:33;8.20;99.90
12470;DHT22;36499;46.484;13.832;2022-10-16T06:20:00;8.30;99.90
12470;DHT22;36499;46.484;13.832;2022-10-16T06:22:28;8.40;99.90
12470;DHT22;36499;46.484;13.832;2022-10-16T06:24:55;8.50;99.90
12470;DHT22;36499;46.484;13.832;2022-10-16T06:27:22;8.70;99.90
12470;DHT22;36499;46.484;13.832;2022-10-16T06:29:51;8.80;99.90
12470;DHT22;36499;46.484;13.832;2022-10-16T06:32:18;8.80;99.90
12470;DHT22;36499;46.484;13.832;2022-10-16T06:34:46;8.90;99.90
12470;DHT22;36499;46.484;13.832;2022-10-16T06:37:13;8.90;99.90
12470;DHT22;36499;46.484;13.832;2022-10-16T06:39:40;8.90;99.90
12470;DHT22;36499;46.484;13.832;2022-10-16T06:42:08;9.00;99.90
12470;DHT22;36499;46.484;13.832;2022-10-16T06:44:35;9.10;99.90
12470;DHT22;36499;46.484;13.832;2022-10-16T06:47:04;9.10;99.90
12470;DHT22;36499;46.484;13.832;2022-10-16T06:49:31;9.20;99.90
12470;DHT22;36499;46.484;13.832;2022-10-16T06:51:58;9.30;99.90
12470;DHT22;36499;46.484;13.832;2022-10-16T06:54:27;9.50;99.90
12470;DHT22;36499;46.484;13.832;2022-10-16T06:56:54;9.70;99.90
12470;DHT22;36499;46.484;13.832;2022-10-16T06:59:21;9.80;99.90
12470;DHT22;36499;46.484;13.832;2022-10-16T07:01:49;10.10;99.90
12470;DHT22;36499;46.484;13.832;2022-10-16T07:04:17;10.20;99.90
12470;DHT22;36499;46.484;13.832;2022-10-16T07:06:44;10.40;99.90
12470;DHT22;36499;46.484;13.832;2022-10-16T07:09:11;10.50;99.90
12470;DHT22;36499;46.484;13.832;2022-10-16T07:11:39;10.70;99.90
12470;DHT22;36499;46.484;13.832;2022-10-16T07:14:15;10.90;99.90
12470;DHT22;36499;46.484;13.832;2022-10-16T07:16:43;11.00;99.90
12470;DHT22;36499;46.484;13.832;2022-10-16T07:19:10;11.10;99.90
12470;DHT22;36499;46.484;13.832;2022-10-16T07:21:41;11.20;99.90
12470;DHT22;36499;46.484;13.832;2022-10-16T07:24:12;11.20;99.90
12470;DHT22;36499;46.484;13.832;2022-10-16T07:26:42;11.30;99.90
12470;DHT22;36499;46.484;13.832;2022-10-16T07:29:13;11.40;99.90
12470;DHT22;36499;46.484;13.832;2022-10-16T07:31:41;11.50;99.90
12470;DHT22;36499;46.484;13.832;2022-10-16T07:34:10;11.60;99.90
12470;DHT22;36499;46.484;13.832;2022-10-16T07:36:41;11.70;99.90
12470;DHT22;36499;46.484;13.832;2022-10-16T07:39:09;11.80;99.90
12470;DHT22;36499;46.484;13.832;2022-10-16T07:41:36;12.00;99.90
12470;DHT22;36499;46.484;13.832;2022-10-16T07:44:04;12.10;99.90
12470;DHT22;36499;46.484;13.832;2022-10-16T07:46:32;12.20;99.90
12470;DHT22;36499;46.484;13.832;2022-10-16T07:49:01;12.30;99.90
12470;DHT22;36499;46.484;13.832;2022-10-16T07:51:29;12.40;99.90
12470;DHT22;36499;46.484;13.832;2022-10-16T07:53:58;12.50;99.90
12470;DHT22;36499;46.484;13.832;2022-10-16T07:56:25;12.60;99.90
12470;DHT22;36499;46.484;13.832;2022-10-16T07:58:53;12.70;99.90
12470;DHT22;36499;46.484;13.832;2022-10-16T08:01:21;12.70;99.90
12470;DHT22;36499;46.484;13.832;2022-10-16T08:03:50;12.80;99.90
12470;DHT22;36499;46.484;13.832;2022-10-16T08:06:19;12.90;99.90
12470;DHT22;36499;46.484;13.832;2022-10-16T08:08:48;13.10;99.90
12470;DHT22;36499;46.484;13.832;2022-10-16T08:11:17;13.20;99.90
12470;DHT22;36499;46.484;13.832;2022-10-16T08:13:44;13.30;99.90
12470;DHT22;36499;46.484;13.832;2022-10-16T08:16:12;13.40;99.90
12470;DHT22;36499;46.484;13.832;2022-10-16T08:18:40;13.60;99.90
12470;DHT22;36499;46.484;13.832;2022-10-16T08:21:12;13.60;99.90
12470;DHT22;36499;46.484;13.832;2022-10-16T08:23:41;13.70;99.90
12470;DHT22;36499;46.484;13.832;2022-10-16T08:26:10;13.80;99.90
12470;DHT22;36499;46.484;13.832;2022-10-16T08:28:39;13.90;99.90
12470;DHT22;36499;46.484;13.832;2022-10-16T08:31:08;14.10;99.90
12470;DHT22;36499;46.484;13.832;2022-10-16T08:33:37;14.20;99.90
12470;DHT22;36499;46.484;13.832;2022-10-16T08:36:10;14.30;99.90
12470;DHT22;36499;46.484;13.832;2022-10-16T08:38:38;14.40;99.90
12470;DHT22;36499;46.484;13.832;2022-10-16T08:41:23;14.60;99.90
12470;DHT22;36499;46.484;13.832;2022-10-16T08:44:42;14.80;99.90
12470;DHT22;36499;46.484;13.832;2022-10-16T08:47:43;14.90;99.90
12470;DHT22;36499;46.484;13.832;2022-10-16T08:50:21;15.10;99.90
12470;DHT22;36499;46.484;13.832;2022-10-16T08:52:51;15.20;99.90
12470;DHT22;36499;46.484;13.832;2022-10-16T08:55:41;15.30;99.90
12470;DHT22;36499;46.484;13.832;2022-10-16T08:58:16;15.50;99.90
12470;DHT22;36499;46.484;13.832;2022-10-16T09:00:51;15.60;99.90
12470;DHT22;36499;46.484;13.832;2022-10-16T09:03:33;15.70;99.90
12470;DHT22;36499;46.484;13.832;2022-10-16T09:06:25;15.80;99.90
12470;DHT22;36499;46.484;13.832;2022-10-16T09:09:11;16.00;99.90
12470;DHT22;36499;46.484;13.832;2022-10-16T09:11:56;16.10;99.90
12470;DHT22;36499;46.484;13.832;2022-10-16T09:14:47;16.20;99.90
12470;DHT22;36499;46.484;13.832;2022-10-16T09:17:38;16.30;99.90
12470;DHT22;36499;46.484;13.832;2022-10-16T09:20:26;16.40;99.90
12470;DHT22;36499;46.484;13.832;2022-10-16T09:23:12;16.50;99.90
12470;DHT22;36499;46.484;13.832;2022-10-16T09:25:45;16.60;99.90
12470;DHT22;36499;46.484;13.832;2022-10-16T09:28:18;16.70;99.90
12470;DHT22;36499;46.484;13.832;2022-10-16T09:30:48;16.90;99.90
12470;DHT22;36499;46.484;13.832;2022-10-16T09:33:20;17.00;99.90
12470;DHT22;36499;46.484;13.832;2022-10-16T09:35:56;16.90;99.90
12470;DHT22;36499;46.484;13.832;2022-10-16T09:38:27;17.10;99.90
12470;DHT22;36499;46.484;13.832;2022-10-16T09:40:59;17.20;99.90
12470;DHT22;36499;46.484;13.832;2022-10-16T09:43:40;17.30;99.90
12470;DHT22;36499;46.484;13.832;2022-10-16T09:46:24;17.50;99.90
12470;DHT22;36499;46.484;13.832;2022-10-16T09:48:57;17.60;99.90
12470;DHT22;36499;46.484;13.832;2022-10-16T09:51:28;17.70;99.90
12470;DHT22;36499;46.484;13.832;2022-10-16T09:53:59;17.90;99.90
12470;DHT22;36499;46.484;13.832;2022-10-16T09:56:28;18.00;99.90
12470;DHT22;36499;46.484;13.832;2022-10-16T09:58:59;18.10;99.90
12470;DHT22;36499;46.484;13.832;2022-10-16T10:01:39;18.20;99.90
12470;DHT22;36499;46.484;13.832;2022-10-16T10:04:10;18.40;99.90
12470;DHT22;36499;46.484;13.832;2022-10-16T10:06:43;18.50;99.90
12470;DHT22;36499;46.484;13.832;2022-10-16T10:09:18;18.60;99.90
12470;DHT22;36499;46.484;13.832;2022-10-16T10:11:51;18.80;99.90
12470;DHT22;36499;46.484;13.832;2022-10-16T10:14:25;18.90;99.90
12470;DHT22;36499;46.484;13.832;2022-10-16T10:17:14;19.10;99.90
12470;DHT22;36499;46.484;13.832;2022-10-16T10:19:51;19.20;99.90
12470;DHT22;36499;46.484;13.832;2022-10-16T10:22:24;19.20;99.90
12470;DHT22;36499;46.484;13.832;2022-10-16T10:25:00;19.20;99.90
12470;DHT22;36499;46.484;13.832;2022-10-16T10:27:59;19.20;99.90
12470;DHT22;36499;46.484;13.832;2022-10-16T10:30:42;19.40;99.90
12470;DHT22;36499;46.484;13.832;2022-10-16T10:33:24;19.50;99.90
12470;DHT22;36499;46.484;13.832;2022-10-16T10:36:05;19.70;99.90
12470;DHT22;36499;46.484;13.832;2022-10-16T10:38:48;19.70;99.90
12470;DHT22;36499;46.484;13.832;2022-10-16T10:45:00;19.90;99.90
12470;DHT22;36499;46.484;13.832;2022-10-16T10:47:47;20.20;99.90
12470;DHT22;36499;46.484;13.832;2022-10-16T10:50:25;20.50;99.90
12470;DHT22;36499;46.484;13.832;2022-10-16T10:53:10;20.70;99.90
12470;DHT22;36499;46.484;13.832;2022-10-16T10:55:54;20.90;99.90
12470;DHT22;36499;46.484;13.832;2022-10-16T10:58:58;21.10;99.90
12470;DHT22;36499;46.484;13.832;2022-10-16T11:01:40;21.00;99.90
12470;DHT22;36499;46.484;13.832;2022-10-16T11:07:45;20.90;99.90
12470;DHT22;36499;46.484;13.832;2022-10-16T11:10:21;20.70;99.90
12470;DHT22;36499;46.484;13.832;2022-10-16T11:12:56;20.70;99.90
12470;DHT22;36499;46.484;13.832;2022-10-16T11:15:32;20.70;99.90
12470;DHT22;36499;46.484;13.832;2022-10-16T11:18:06;20.60;99.90
12470;DHT22;36499;46.484;13.832;2022-10-16T11:20:42;20.60;99.90
12470;DHT22;36499;46.484;13.832;2022-10-16T11:23:21;20.70;99.90
12470;DHT22;36499;46.484;13.832;2022-10-16T11:25:56;20.70;99.90
12470;DHT22;36499;46.484;13.832;2022-10-16T11:28:31;20.80;99.90
12470;DHT22;36499;46.484;13.832;2022-10-16T11:31:08;20.80;99.90
12470;DHT22;36499;46.484;13.832;2022-10-16T11:33:44;20.90;99.90
12470;DHT22;36499;46.484;13.832;2022-10-16T11:36:19;20.80;99.90
12470;DHT22;36499;46.484;13.832;2022-10-16T11:38:55;20.80;99.90
12470;DHT22;36499;46.484;13.832;2022-10-16T11:41:34;20.80;99.90
12470;DHT22;36499;46.484;13.832;2022-10-16T11:44:21;20.80;99.90
12470;DHT22;36499;46.484;13.832;2022-10-16T11:47:08;20.90;99.90
12470;DHT22;36499;46.484;13.832;2022-10-16T11:49:49;20.80;99.90
12470;DHT22;36499;46.484;13.832;2022-10-16T11:52:27;20.70;99.90
12470;DHT22;36499;46.484;13.832;2022-10-16T11:55:05;20.70;99.90
12470;DHT22;36499;46.484;13.832;2022-10-16T11:57:47;20.70;99.90
12470;DHT22;36499;46.484;13.832;2022-10-16T12:00:22;20.50;99.90
12470;DHT22;36499;46.484;13.832;2022-10-16T12:02:59;20.40;99.90
12470;DHT22;36499;46.484;13.832;2022-10-16T12:05:39;20.40;99.90
12470;DHT22;36499;46.484;13.832;2022-10-16T12:08:19;20.50;99.90
12470;DHT22;36499;46.484;13.832;2022-10-16T12:10:48;20.70;99.90
12470;DHT22;36499;46.484;13.832;2022-10-16T12:13:34;20.70;99.90
12470;DHT22;36499;46.484;13.832;2022-10-16T12:16:19;20.90;99.90
12470;DHT22;36499;46.484;13.832;2022-10-16T12:18:49;20.90;99.90
12470;DHT22;36499;46.484;13.832;2022-10-16T12:21:31;20.90;99.90
12470;DHT22;36499;46.484;13.832;2022-10-16T12:24:02;21.00;99.90
12470;DHT22;36499;46.484;13.832;2022-10-16T12:26:33;21.20;99.90
12470;DHT22;36499;46.484;13.832;2022-10-16T12:29:14;21.20;99.90
12470;DHT22;36499;46.484;13.832;2022-10-16T12:31:50;21.30;99.90
12470;DHT22;36499;46.484;13.832;2022-10-16T12:34:24;21.40;99.90
12470;DHT22;36499;46.484;13.832;2022-10-16T12:37:13;21.40;99.90
12470;DHT22;36499;46.484;13.832;2022-10-16T12:39:46;21.40;99.90
12470;DHT22;36499;46.484;13.832;2022-10-16T12:42:30;21.40;99.90
12470;DHT22;36499;46.484;13.832;2022-10-16T12:45:26;21.40;99.90
12470;DHT22;36499;46.484;13.832;2022-10-16T12:47:57;21.50;99.90
12470;DHT22;36499;46.484;13.832;2022-10-16T12:50:30;21.40;99.90
12470;DHT22;36499;46.484;13.832;2022-10-16T12:53:00;21.40;99.90
12470;DHT22;36499;46.484;13.832;2022-10-16T12:55:35;21.40;99.90
12470;DHT22;36499;46.484;13.832;2022-10-16T12:58:43;21.50;99.90
12470;DHT22;36499;46.484;13.832;2022-10-16T13:01:29;21.50;99.90
12470;DHT22;36499;46.484;13.832;2022-10-16T13:04:22;21.30;99.90
12470;DHT22;36499;46.484;13.832;2022-10-16T13:07:15;21.30;99.90
12470;DHT22;36499;46.484;13.832;2022-10-16T13:10:10;21.40;99.90
12470;DHT22;36499;46.484;13.832;2022-10-16T13:13:24;21.40;99.90
12470;DHT22;36499;46.484;13.832;2022-10-16T13:16:19;21.30;99.90
12470;DHT22;36499;46.484;13.832;2022-10-16T13:19:10;21.30;99.90
12470;DHT22;36499;46.484;13.832;2022-10-16T13:21:54;21.20;99.90
12470;DHT22;36499;46.484;13.832;2022-10-16T13:24:42;21.20;99.90
12470;DHT22;36499;46.484;13.832;2022-10-16T13:27:26;21.20;99.90
12470;DHT22;36499;46.484;13.832;2022-10-16T13:30:11;21.20;99.90
12470;DHT22;36499;46.484;13.832;2022-10-16T13:32:45;21.20;99.90
12470;DHT22;36499;46.484;13.832;2022-10-16T13:35:22;21.20;99.90
12470;DHT22;36499;46.484;13.832;2022-10-16T13:38:02;21.20;99.90
12470;DHT22;36499;46.484;13.832;2022-10-16T13:40:30;21.20;99.90
12470;DHT22;36499;46.484;13.832;2022-10-16T13:43:00;21.30;99.90
12470;DHT22;36499;46.484;13.832;2022-10-16T13:45:28;21.20;99.90
12470;DHT22;36499;46.484;13.832;2022-10-16T13:48:04;21.20;99.90
12470;DHT22;36499;46.484;13.832;2022-10-16T13:50:33;21.20;99.90
12470;DHT22;36499;46.484;13.832;2022-10-16T13:53:04;21.10;99.90
12470;DHT22;36499;46.484;13.832;2022-10-16T13:55:32;21.10;99.90
12470;DHT22;36499;46.484;13.832;2022-10-16T13:58:10;21.00;99.90
12470;DHT22;36499;46.484;13.832;2022-10-16T14:00:39;20.90;99.90
12470;DHT22;36499;46.484;13.832;2022-10-16T14:03:14;20.90;99.90
12470;DHT22;36499;46.484;13.832;2022-10-16T14:05:46;20.80;99.90
12470;DHT22;36499;46.484;13.832;2022-10-16T14:08:16;20.80;99.90
12470;DHT22;36499;46.484;13.832;2022-10-16T14:10:48;20.60;99.90
12470;DHT22;36499;46.484;13.832;2022-10-16T14:13:24;20.30;99.90
12470;DHT22;36499;46.484;13.832;2022-10-16T14:16:05;20.10;99.90
12470;DHT22;36499;46.484;13.832;2022-10-16T14:18:37;19.90;99.90
12470;DHT22;36499;46.484;13.832;2022-10-16T14:21:13;19.60;99.90
12470;DHT22;36499;46.484;13.832;2022-10-16T14:23:42;19.20;99.90
12470;DHT22;36499;46.484;13.832;2022-10-16T14:26:16;19.00;99.90
12470;DHT22;36499;46.484;13.832;2022-10-16T14:28:47;18.70;99.90
12470;DHT22;36499;46.484;13.832;2022-10-16T14:31:36;18.30;99.90
12470;DHT22;36499;46.484;13.832;2022-10-16T14:34:25;18.10;99.90
12470;DHT22;36499;46.484;13.832;2022-10-16T14:36:54;17.80;99.90
12470;DHT22;36499;46.484;13.832;2022-10-16T14:39:22;17.60;99.90
12470;DHT22;36499;46.484;13.832;2022-10-16T14:41:54;17.40;99.90
12470;DHT22;36499;46.484;13.832;2022-10-16T14:44:28;17.30;99.90
12470;DHT22;36499;46.484;13.832;2022-10-16T14:47:06;17.10;99.90
12470;DHT22;36499;46.484;13.832;2022-10-16T14:49:36;16.90;99.90
12470;DHT22;36499;46.484;13.832;2022-10-16T14:52:09;16.70;99.90
12470;DHT22;36499;46.484;13.832;2022-10-16T14:54:38;16.50;99.90
12470;DHT22;36499;46.484;13.832;2022-10-16T14:57:12;16.20;99.90
12470;DHT22;36499;46.484;13.832;2022-10-16T14:59:44;16.10;99.90
12470;DHT22;36499;46.484;13.832;2022-10-16T15:02:29;16.00;99.90
12470;DHT22;36499;46.484;13.832;2022-10-16T15:05:07;15.90;99.90
12470;DHT22;36499;46.484;13.832;2022-10-16T15:07:39;15.80;99.90
12470;DHT22;36499;46.484;13.832;2022-10-16T15:10:07;15.70;99.90
12470;DHT22;36499;46.484;13.832;2022-10-16T15:12:34;15.50;99.90
12470;DHT22;36499;46.484;13.832;2022-10-16T15:15:08;15.40;99.90
12470;DHT22;36499;46.484;13.832;2022-10-16T15:17:50;15.40;99.90
12470;DHT22;36499;46.484;13.832;2022-10-16T15:20:20;15.30;99.90
12470;DHT22;36499;46.484;13.832;2022-10-16T15:22:48;15.20;99.90
12470;DHT22;36499;46.484;13.832;2022-10-16T15:25:27;15.10;99.90
12470;DHT22;36499;46.484;13.832;2022-10-16T15:27:58;15.00;99.90
12470;DHT22;36499;46.484;13.832;2022-10-16T15:30:26;14.90;99.90
12470;DHT22;36499;46.484;13.832;2022-10-16T15:32:54;14.90;99.90
12470;DHT22;36499;46.484;13.832;2022-10-16T15:35:23;14.70;99.90
12470;DHT22;36499;46.484;13.832;2022-10-16T15:37:51;14.60;99.90
12470;DHT22;36499;46.484;13.832;2022-10-16T15:40:19;14.50;99.90
12470;DHT22;36499;46.484;13.832;2022-10-16T15:42:48;14.50;99.90
12470;DHT22;36499;46.484;13.832;2022-10-16T15:45:16;14.30;99.90
12470;DHT22;36499;46.484;13.832;2022-10-16T15:47:45;14.20;99.90
12470;DHT22;36499;46.484;13.832;2022-10-16T15:50:14;14.10;99.90
12470;DHT22;36499;46.484;13.832;2022-10-16T15:52:43;14.10;99.90
12470;DHT22;36499;46.484;13.832;2022-10-16T15:55:12;14.00;99.90
12470;DHT22;36499;46.484;13.832;2022-10-16T15:57:40;13.90;99.90
12470;DHT22;36499;46.484;13.832;2022-10-16T16:00:10;13.90;99.90
12470;DHT22;36499;46.484;13.832;2022-10-16T16:02:39;13.80;99.90
12470;DHT22;36499;46.484;13.832;2022-10-16T16:05:08;13.70;99.90
12470;DHT22;36499;46.484;13.832;2022-10-16T16:07:38;13.70;99.90